Terminal Aerodrome Forecast
Issued by NWS Grand Forks, ND

Home | Current Version | Previous Version | Graphics & Text | Print | Product List | Glossary On
Versions: 1 2 3 4 5 6 7 8 9 10 11 12 13 14 15 16 17 18 19 20
000
FTUS43 KFGF 291800 AAA
TAFGFK
TAF AMD
KGFK 291850Z 2919/3018 32005KT P6SM BKN007 BKN015
     FM291930 36015G20KT P6SM VCSH BKN020
      TEMPO 2920/2922 BKN009
     FM292200 36018G25KT P6SM BKN030
     FM300300 36013KT P6SM BKN040
     FM301000 35006KT P6SM SCT050=

USA.gov is the U.S. government's official web portal to all federal, state and local government web resources and services.